createdAt,value
2023-01-20T00:01:28.843Z,2.00
2023-01-20T00:04:37.213Z,2.00
2023-01-20T00:07:46.955Z,2.00
2023-01-20T00:10:55.627Z,2.00
2023-01-20T00:14:04.534Z,2.00
2023-01-20T00:17:12.883Z,1.90
2023-01-20T00:20:21.346Z,1.90
2023-01-20T00:23:31.145Z,1.90
2023-01-20T00:26:39.557Z,2.00
2023-01-20T00:29:48.073Z,1.90
2023-01-20T00:32:56.635Z,1.90
2023-01-20T00:36:05.660Z,2.00
2023-01-20T00:39:15.492Z,2.00
2023-01-20T00:42:23.861Z,2.00
2023-01-20T00:45:32.269Z,2.00
2023-01-20T00:48:41.210Z,2.00
2023-01-20T00:51:49.557Z,2.00
2023-01-20T00:54:59.287Z,2.00
2023-01-20T00:58:07.686Z,2.00
2023-01-20T01:01:16.210Z,2.00
2023-01-20T01:04:24.819Z,2.00
2023-01-20T01:07:33.179Z,2.00
2023-01-20T01:10:43.100Z,2.00
2023-01-20T01:13:51.519Z,2.00
2023-01-20T01:16:59.938Z,2.00
2023-01-20T01:20:09.141Z,2.00
2023-01-20T01:23:17.588Z,2.10
2023-01-20T01:26:27.376Z,2.00
2023-01-20T01:29:35.769Z,2.00
2023-01-20T01:32:44.109Z,2.10
2023-01-20T01:35:58.540Z,2.00
2023-01-20T01:39:06.918Z,2.00
2023-01-20T01:42:19.349Z,2.00
2023-01-20T01:45:29.977Z,2.10
2023-01-20T01:48:41.443Z,2.10
2023-01-20T01:51:53.690Z,2.10
2023-01-20T01:55:03.527Z,2.10
2023-01-20T01:58:16.691Z,2.00
2023-01-20T02:01:25.984Z,2.00
2023-01-20T02:04:35.180Z,2.00
2023-01-20T02:07:47.581Z,2.10
2023-01-20T02:10:55.935Z,2.10
2023-01-20T02:14:06.116Z,2.10
2023-01-20T02:17:22.270Z,2.10
2023-01-20T02:21:12.008Z,2.10
2023-01-20T02:24:48.617Z,2.10
2023-01-20T02:28:36.582Z,2.10
2023-01-20T02:32:16.532Z,2.10
2023-01-20T02:35:33.233Z,2.10
2023-01-20T02:38:47.007Z,2.10
2023-01-20T02:42:00.539Z,2.00
2023-01-20T02:45:18.671Z,2.00
2023-01-20T02:48:36.235Z,1.90
2023-01-20T02:51:49.219Z,1.90
2023-01-20T02:55:01.588Z,1.90
2023-01-20T02:58:15.985Z,1.90
2023-01-20T03:01:29.746Z,1.90
2023-01-20T03:04:45.784Z,1.90
2023-01-20T03:07:56.075Z,2.00
2023-01-20T03:11:08.069Z,1.90
2023-01-20T03:14:18.017Z,1.90
2023-01-20T03:17:26.640Z,2.00
2023-01-20T03:20:37.317Z,2.00
2023-01-20T03:23:49.870Z,1.90
2023-01-20T03:26:59.190Z,1.90
2023-01-20T03:30:13.127Z,1.90
2023-01-20T03:33:21.641Z,1.90
2023-01-20T03:36:33.047Z,1.90
2023-01-20T03:39:41.716Z,1.90
2023-01-20T03:42:57.795Z,2.00
2023-01-20T03:46:12.186Z,2.10
2023-01-20T03:49:27.937Z,2.00
2023-01-20T03:52:47.569Z,2.00
2023-01-20T03:56:02.150Z,2.00
2023-01-20T03:59:14.182Z,2.00
2023-01-20T04:02:24.979Z,2.00
2023-01-20T04:05:34.789Z,2.00
2023-01-20T04:08:49.216Z,2.00
2023-01-20T04:11:57.560Z,2.00
2023-01-20T04:15:08.897Z,2.00
2023-01-20T04:18:19.447Z,1.90
2023-01-20T04:21:35.093Z,2.00
2023-01-20T04:24:50.396Z,2.00
2023-01-20T04:27:58.879Z,2.00
2023-01-20T04:31:11.355Z,2.00
2023-01-20T04:34:26.750Z,2.00
2023-01-20T04:37:35.236Z,2.00
2023-01-20T04:40:45.008Z,2.00
2023-01-20T04:43:53.500Z,2.00
2023-01-20T04:47:01.890Z,2.00
2023-01-20T04:50:12.107Z,2.10
2023-01-20T04:53:20.457Z,2.00
2023-01-20T04:56:30.263Z,2.00
2023-01-20T04:59:38.620Z,1.90
2023-01-20T05:02:47.424Z,1.90
2023-01-20T05:05:56.226Z,2.00
2023-01-20T05:09:04.698Z,2.00
2023-01-20T05:12:14.502Z,2.00
2023-01-20T05:15:22.902Z,1.90
2023-01-20T05:18:31.252Z,2.00
2023-01-20T05:21:39.679Z,2.00
2023-01-20T05:24:48.014Z,2.00
2023-01-20T05:27:57.843Z,2.00
2023-01-20T05:31:06.350Z,2.00
2023-01-20T05:34:16.552Z,2.00
2023-01-20T05:37:25.093Z,2.00
2023-01-20T05:40:33.802Z,2.00
2023-01-20T05:43:43.599Z,2.00
2023-01-20T05:46:52.079Z,2.00
2023-01-20T05:50:00.427Z,2.10
2023-01-20T05:53:08.868Z,2.00
2023-01-20T05:56:17.223Z,2.10
2023-01-20T05:59:27.344Z,2.10
2023-01-20T06:02:36.016Z,2.10
2023-01-20T06:05:44.451Z,2.00
2023-01-20T06:08:53.479Z,2.00
2023-01-20T06:12:01.855Z,2.10
2023-01-20T06:15:13.057Z,2.10
2023-01-20T06:18:22.349Z,2.00
2023-01-20T06:21:30.707Z,2.10
2023-01-20T06:24:39.153Z,2.10
2023-01-20T06:27:47.488Z,2.10
2023-01-20T06:31:02.503Z,2.10
2023-01-20T06:34:12.614Z,2.10
2023-01-20T06:37:21.190Z,2.10
2023-01-20T06:40:29.551Z,2.10
2023-01-20T06:43:40.159Z,2.10
2023-01-20T06:46:50.211Z,2.10
2023-01-20T06:49:58.601Z,2.10
2023-01-20T06:53:06.937Z,2.10
2023-01-20T06:56:16.466Z,2.10
2023-01-20T06:59:25.081Z,2.10
2023-01-20T07:02:34.972Z,2.10
2023-01-20T07:05:43.429Z,2.10
2023-01-20T07:08:51.843Z,2.10
2023-01-20T07:12:00.230Z,2.10
2023-01-20T07:15:09.657Z,2.10
2023-01-20T07:18:19.410Z,2.20
2023-01-20T07:21:27.835Z,2.20
2023-01-20T07:24:36.358Z,2.20
2023-01-20T07:27:44.724Z,2.20
2023-01-20T07:30:53.692Z,2.10
2023-01-20T07:34:03.824Z,2.20
2023-01-20T07:37:12.236Z,2.20
2023-01-20T07:40:21.188Z,2.20
2023-01-20T07:43:29.995Z,2.20
2023-01-20T07:46:38.386Z,2.20
2023-01-20T07:49:48.152Z,2.20
2023-01-20T07:52:56.871Z,2.20
2023-01-20T07:56:07.351Z,2.20
2023-01-20T07:59:15.715Z,2.20
2023-01-20T08:02:24.036Z,2.10
2023-01-20T08:05:34.963Z,2.20
2023-01-20T08:08:43.356Z,2.20
2023-01-20T08:11:51.744Z,2.20
2023-01-20T08:15:00.108Z,2.10
2023-01-20T08:18:08.494Z,2.10
2023-01-20T08:21:23.746Z,2.10
2023-01-20T08:24:32.348Z,2.10
2023-01-20T08:27:40.758Z,2.20
2023-01-20T08:30:49.223Z,2.10
2023-01-20T08:33:58.369Z,2.10
2023-01-20T08:37:08.451Z,2.10
2023-01-20T08:40:17.404Z,2.20
2023-01-20T08:43:26.400Z,2.20
2023-01-20T08:46:35.630Z,2.20
2023-01-20T08:49:45.039Z,2.30
2023-01-20T08:52:54.816Z,2.30
2023-01-20T08:56:04.167Z,2.40
2023-01-20T08:59:12.557Z,2.40
2023-01-20T09:02:21.099Z,2.40
2023-01-20T09:05:29.515Z,2.40
2023-01-20T09:08:39.916Z,2.50
2023-01-20T09:11:51.713Z,2.40
2023-01-20T09:15:00.102Z,2.50
2023-01-20T09:18:08.561Z,2.40
2023-01-20T09:21:17.018Z,2.50
2023-01-20T09:24:26.963Z,2.50
2023-01-20T09:27:35.394Z,2.50
2023-01-20T09:30:43.892Z,2.60
2023-01-20T09:33:52.358Z,2.50
2023-01-20T09:37:22.475Z,2.60
2023-01-20T09:41:05.398Z,2.60
2023-01-20T09:44:41.085Z,2.60
2023-01-20T09:47:50.854Z,2.60
2023-01-20T09:51:20.597Z,2.70
2023-01-20T09:54:35.094Z,2.70
2023-01-20T09:57:50.131Z,2.70
2023-01-20T10:01:09.816Z,2.70
2023-01-20T10:04:25.053Z,2.80
2023-01-20T10:07:38.520Z,2.70
2023-01-20T10:10:53.722Z,2.80
2023-01-20T10:14:09.447Z,2.70
2023-01-20T10:17:24.775Z,2.80
2023-01-20T10:20:38.869Z,2.80
2023-01-20T10:23:53.116Z,2.90
2023-01-20T10:27:04.082Z,2.90
2023-01-20T10:30:15.600Z,2.90
2023-01-20T10:33:29.123Z,2.90
2023-01-20T10:36:39.984Z,2.80
2023-01-20T10:39:53.752Z,2.90
2023-01-20T10:43:05.865Z,3.00
2023-01-20T10:46:34.147Z,3.00
2023-01-20T10:50:10.732Z,3.00
2023-01-20T10:53:33.729Z,3.00
2023-01-20T10:56:44.953Z,3.00
2023-01-20T10:59:57.015Z,3.00
2023-01-20T11:03:11.137Z,2.90
2023-01-20T11:06:21.550Z,3.00
2023-01-20T11:09:37.181Z,3.00
2023-01-20T11:12:48.495Z,3.00
2023-01-20T11:16:00.249Z,3.00
2023-01-20T11:19:10.084Z,3.00
2023-01-20T11:22:25.279Z,3.00
2023-01-20T11:25:33.779Z,3.00
2023-01-20T11:28:49.475Z,3.00
2023-01-20T11:31:59.878Z,3.00
2023-01-20T11:35:24.684Z,3.00
2023-01-20T11:38:42.241Z,3.00
2023-01-20T11:41:50.645Z,3.00
2023-01-20T11:45:19.585Z,3.00
2023-01-20T11:48:29.460Z,3.10
2023-01-20T11:51:46.918Z,3.10
2023-01-20T11:55:09.415Z,3.00
2023-01-20T11:58:21.020Z,3.00
2023-01-20T12:01:32.179Z,3.10
2023-01-20T12:05:02.760Z,3.10
2023-01-20T12:08:22.962Z,3.10
2023-01-20T12:11:35.455Z,3.10
2023-01-20T12:14:48.512Z,3.10
2023-01-20T12:18:01.605Z,3.10
2023-01-20T12:21:17.776Z,3.10
2023-01-20T12:24:53.858Z,3.10
2023-01-20T12:28:06.749Z,3.10
2023-01-20T12:31:20.180Z,3.10
2023-01-20T12:34:30.716Z,3.20
2023-01-20T12:37:45.350Z,3.20
2023-01-20T12:40:56.854Z,3.10
2023-01-20T12:44:14.497Z,3.20
2023-01-20T12:47:39.244Z,3.10
2023-01-20T12:50:59.890Z,3.10
2023-01-20T12:54:47.832Z,3.10
2023-01-20T12:58:08.990Z,3.10
2023-01-20T13:01:43.712Z,3.20
2023-01-20T13:05:27.276Z,3.20
2023-01-20T13:08:42.925Z,3.10
2023-01-20T13:12:04.630Z,3.20
2023-01-20T13:15:22.643Z,3.20
2023-01-20T13:18:38.346Z,3.20
2023-01-20T13:21:54.025Z,3.20
2023-01-20T13:25:17.350Z,3.20
2023-01-20T13:28:28.315Z,3.10
2023-01-20T13:31:48.086Z,3.10
2023-01-20T13:34:56.865Z,3.10
2023-01-20T13:38:05.428Z,3.10
2023-01-20T13:41:50.785Z,3.10
2023-01-20T13:45:18.888Z,3.10
2023-01-20T13:48:29.073Z,3.10
2023-01-20T13:51:48.154Z,3.00
2023-01-20T13:54:57.686Z,3.10
2023-01-20T13:58:06.164Z,3.10
2023-01-20T14:01:15.486Z,3.10
2023-01-20T14:04:25.382Z,3.10
2023-01-20T14:07:33.880Z,3.00
2023-01-20T14:10:42.431Z,3.00
2023-01-20T14:13:54.634Z,3.00
2023-01-20T14:17:11.983Z,3.00
2023-01-20T14:20:25.149Z,3.00
2023-01-20T14:23:36.955Z,3.00
2023-01-20T14:26:45.460Z,3.00
2023-01-20T14:29:55.275Z,3.00
2023-01-20T14:33:15.534Z,3.00
2023-01-20T14:36:28.129Z,3.00
2023-01-20T14:39:36.926Z,3.00
2023-01-20T14:42:56.527Z,3.00
2023-01-20T14:46:05.197Z,2.90
2023-01-20T14:49:17.392Z,2.90
2023-01-20T14:52:30.309Z,2.90
2023-01-20T14:55:43.400Z,2.90
2023-01-20T14:58:54.777Z,2.90
2023-01-20T15:02:10.905Z,2.90
2023-01-20T15:05:29.418Z,2.80
2023-01-20T15:09:04.353Z,2.80
2023-01-20T15:12:39.520Z,2.90
2023-01-20T15:15:48.154Z,2.90
2023-01-20T15:19:32.264Z,2.80
2023-01-20T15:22:44.271Z,2.80
2023-01-20T15:25:54.209Z,2.70
2023-01-20T15:29:02.576Z,2.70
2023-01-20T15:32:12.349Z,2.70
2023-01-20T15:35:25.639Z,2.80
2023-01-20T15:38:34.106Z,2.80
2023-01-20T15:41:44.244Z,2.70
2023-01-20T15:44:52.759Z,2.70
2023-01-20T15:48:01.248Z,2.70
2023-01-20T15:51:16.773Z,2.70
2023-01-20T15:54:25.260Z,2.70
2023-01-20T15:57:35.153Z,2.80
2023-01-20T16:00:44.197Z,2.80
2023-01-20T16:03:52.945Z,2.80
2023-01-20T16:07:01.386Z,2.80
2023-01-20T16:10:15.417Z,2.70
2023-01-20T16:13:25.566Z,2.70
2023-01-20T16:16:34.059Z,2.70
2023-01-20T16:19:42.754Z,2.70
2023-01-20T16:22:51.768Z,2.70
2023-01-20T16:26:00.403Z,2.70
2023-01-20T16:29:13.639Z,2.70
2023-01-20T16:32:24.182Z,2.70
2023-01-20T16:35:34.157Z,2.70
2023-01-20T16:38:44.115Z,2.60
2023-01-20T16:42:12.267Z,2.60
2023-01-20T16:48:53.428Z,2.70
2023-01-20T16:52:09.262Z,2.50
2023-01-20T16:55:18.945Z,2.40
2023-01-20T16:58:28.251Z,2.40
2023-01-20T17:01:45.475Z,2.40
2023-01-20T17:04:55.417Z,2.40
2023-01-20T17:08:04.314Z,2.30
2023-01-20T17:11:19.901Z,2.30
2023-01-20T17:14:30.282Z,2.30
2023-01-20T17:17:40.493Z,2.30
2023-01-20T17:20:49.523Z,2.30
2023-01-20T17:24:02.179Z,2.30
2023-01-20T17:27:11.466Z,2.30
2023-01-20T17:30:19.953Z,2.30
2023-01-20T17:33:29.750Z,2.40
2023-01-20T17:36:38.855Z,2.30
2023-01-20T17:39:47.844Z,2.40
2023-01-20T17:42:56.663Z,2.40
2023-01-20T17:46:14.062Z,2.40
2023-01-20T17:49:24.105Z,2.50
2023-01-20T17:52:32.934Z,2.40
2023-01-20T17:55:41.530Z,2.40
2023-01-20T17:58:50.704Z,2.50
2023-01-20T18:01:59.166Z,2.40
2023-01-20T18:05:10.240Z,2.40
2023-01-20T18:08:20.215Z,2.40
2023-01-20T18:11:31.261Z,2.30
2023-01-20T18:14:39.783Z,2.30
2023-01-20T18:17:48.207Z,2.30
2023-01-20T18:20:59.138Z,2.40
2023-01-20T18:24:12.006Z,2.40
2023-01-20T18:27:20.406Z,2.40
2023-01-20T18:30:29.748Z,2.40
2023-01-20T18:33:39.956Z,2.40
2023-01-20T18:36:49.914Z,2.40
2023-01-20T18:39:58.400Z,2.40
2023-01-20T18:43:06.909Z,2.40
2023-01-20T18:46:15.522Z,2.40
2023-01-20T18:49:23.952Z,2.40
2023-01-20T18:52:33.813Z,2.40
2023-01-20T18:55:42.215Z,2.40
2023-01-20T18:58:50.658Z,2.40
2023-01-20T19:01:59.491Z,2.50
2023-01-20T19:05:08.795Z,2.50
2023-01-20T19:08:18.545Z,2.40
2023-01-20T19:11:31.308Z,2.40
2023-01-20T19:14:39.772Z,2.40
2023-01-20T19:17:48.120Z,2.40
2023-01-20T19:20:56.467Z,2.40
2023-01-20T19:24:08.099Z,2.40
2023-01-20T19:27:16.517Z,2.40
2023-01-20T19:30:25.231Z,2.40
2023-01-20T19:33:34.014Z,2.40
2023-01-20T19:36:42.688Z,2.40
2023-01-20T19:39:52.425Z,2.50
2023-01-20T19:43:00.961Z,2.50
2023-01-20T19:46:11.215Z,2.50
2023-01-20T19:49:19.847Z,2.50
2023-01-20T19:52:29.735Z,2.60
2023-01-20T19:55:42.563Z,2.70
2023-01-20T19:58:54.733Z,2.60
2023-01-20T20:02:03.137Z,2.70
2023-01-20T20:05:11.550Z,2.70
2023-01-20T20:08:19.983Z,2.60
2023-01-20T20:11:30.511Z,2.60
2023-01-20T20:14:38.929Z,2.60
2023-01-20T20:17:47.321Z,2.60
2023-01-20T20:20:55.874Z,2.60
2023-01-20T20:24:05.659Z,2.60
2023-01-20T20:27:15.729Z,2.60
2023-01-20T20:30:24.536Z,2.50
2023-01-20T20:33:33.155Z,2.60
2023-01-20T20:36:42.265Z,2.60
2023-01-20T20:39:50.696Z,2.60
2023-01-20T20:43:00.439Z,2.50
2023-01-20T20:46:09.407Z,2.50
2023-01-20T20:49:17.852Z,2.60
2023-01-20T20:52:26.405Z,2.50
2023-01-20T20:55:35.044Z,2.60
2023-01-20T20:59:00.035Z,2.60
2023-01-20T21:02:13.728Z,2.60
2023-01-20T21:05:22.170Z,2.60
2023-01-20T21:08:30.744Z,2.50
2023-01-20T21:11:39.986Z,2.50
2023-01-20T21:14:51.224Z,2.50
2023-01-20T21:17:59.657Z,2.40
2023-01-20T21:21:11.178Z,2.40
2023-01-20T21:24:20.045Z,2.40
2023-01-20T21:27:28.541Z,2.40
2023-01-20T21:30:39.509Z,2.40
2023-01-20T21:33:49.205Z,2.40
2023-01-20T21:36:57.777Z,2.40
2023-01-20T21:40:07.442Z,2.30
2023-01-20T21:43:33.371Z,2.30
2023-01-20T21:46:43.163Z,2.30
2023-01-20T21:50:08.703Z,2.20
2023-01-20T21:53:17.199Z,2.20
2023-01-20T21:56:25.685Z,2.20
2023-01-20T21:59:34.296Z,2.20
2023-01-20T22:02:45.657Z,2.20
2023-01-20T22:05:54.000Z,2.20
2023-01-20T22:09:02.428Z,2.20
2023-01-20T22:12:11.310Z,2.10
2023-01-20T22:15:19.811Z,2.10
2023-01-20T22:18:29.662Z,2.10
2023-01-20T22:21:38.075Z,2.00
2023-01-20T22:24:46.513Z,2.00
2023-01-20T22:27:54.828Z,1.90
2023-01-20T22:31:06.979Z,1.90
2023-01-20T22:34:16.720Z,1.90
2023-01-20T22:37:25.777Z,1.90
2023-01-20T22:40:34.463Z,1.90
2023-01-20T22:43:44.663Z,1.90
2023-01-20T22:46:54.031Z,2.00
2023-01-20T22:50:03.855Z,2.00
2023-01-20T22:53:12.303Z,2.00
2023-01-20T22:56:22.291Z,1.90
2023-01-20T22:59:30.867Z,1.90
2023-01-20T23:02:39.845Z,1.90
2023-01-20T23:05:53.675Z,1.90
2023-01-20T23:09:03.470Z,1.90
2023-01-20T23:12:11.853Z,2.00
2023-01-20T23:15:20.222Z,2.00
2023-01-20T23:18:29.525Z,2.00
2023-01-20T23:21:39.313Z,2.00
2023-01-20T23:24:47.722Z,2.00
2023-01-20T23:27:56.126Z,2.00
2023-01-20T23:31:06.363Z,2.00
2023-01-20T23:34:14.834Z,2.00
2023-01-20T23:37:24.918Z,2.00
2023-01-20T23:40:33.294Z,1.90
2023-01-20T23:43:42.306Z,1.90
2023-01-20T23:46:50.642Z,1.90
2023-01-20T23:49:59.056Z,2.00
2023-01-20T23:53:08.773Z,2.00
2023-01-20T23:56:18.953Z,2.00
2023-01-20T23:59:27.388Z,2.00
